Aviation Digital Data Service (ADDS)

Output produced by TAFs form (1009 UTC 04 July 2015)
found at http://aviationweather.gov/adds/tafs/
 
KLND 040531Z 0406/0506 26007KT P6SM FEW120 SCT200 
     FM041800 03008KT P6SM SCT110 
     FM050300 28007KT 5SM FU SCT120